Time;durP1;ratioP1;P1;durP2;ratioP2;P2;SDS_P1;SDS_P2;PMS_P1;PMS_P2;Temp;Humidity;BMP_temperature;BMP_pressure;BME280_temperature;BME280_humidity;BME280_pressure;Samples;Min_cycle;Max_cycle;Signal;HPM_P1;HPM_P2
2024/01/30 00:01:26;;;;;;;31.08;17.05;;;;;;;;;;5067662;28;20507;-73
2024/01/30 00:03:53;;;;;;;32.50;15.85;;;;;;;;;;5069506;28;20044;-71
2024/01/30 00:06:21;;;;;;;51.40;23.60;;;;;;;;;;5068765;28;20052;-69
2024/01/30 00:08:48;;;;;;;43.35;21.42;;;;;;;;;;5066787;28;20055;-68
2024/01/30 00:11:15;;;;;;;36.08;18.80;;;;;;;;;;5067138;28;20056;-70
2024/01/30 00:13:42;;;;;;;42.50;19.13;;;;;;;;;;5066987;28;20139;-69
2024/01/30 00:16:09;;;;;;;36.90;18.23;;;;;;;;;;5049165;28;20113;-71
2024/01/30 00:18:35;;;;;;;29.55;16.73;;;;;;;;;;5066581;28;20045;-69
2024/01/30 00:21:03;;;;;;;36.10;17.98;;;;;;;;;;5065591;28;20048;-69
2024/01/30 00:23:29;;;;;;;41.95;18.92;;;;;;;;;;5066998;28;20055;-69
2024/01/30 00:25:55;;;;;;;37.08;17.38;;;;;;;;;;5066802;28;20123;-70
2024/01/30 00:28:23;;;;;;;40.90;18.90;;;;;;;;;;5066567;28;20719;-70
2024/01/30 00:30:49;;;;;;;40.38;19.30;;;;;;;;;;5070120;28;20048;-73
2024/01/30 00:33:16;;;;;;;39.03;17.73;;;;;;;;;;5069371;28;20060;-69
2024/01/30 00:35:42;;;;;;;35.45;18.42;;;;;;;;;;5067047;28;20481;-70
2024/01/30 00:38:09;;;;;;;34.60;17.05;;;;;;;;;;5066512;28;20049;-71
2024/01/30 00:40:35;;;;;;;42.55;20.13;;;;;;;;;;5068714;28;20052;-71
2024/01/30 00:43:01;;;;;;;40.30;17.25;;;;;;;;;;5070212;28;20111;-72
2024/01/30 00:45:28;;;;;;;32.78;18.50;;;;;;;;;;5070460;28;20523;-69
2024/01/30 00:47:54;;;;;;;34.08;16.48;;;;;;;;;;5069432;28;20051;-71
2024/01/30 00:50:21;;;;;;;32.25;16.20;;;;;;;;;;5069709;28;20048;-70
2024/01/30 00:52:47;;;;;;;26.27;13.85;;;;;;;;;;5070029;28;20048;-70
2024/01/30 00:55:14;;;;;;;29.40;14.85;;;;;;;;;;5069753;28;20048;-70
2024/01/30 00:57:41;;;;;;;25.60;13.32;;;;;;;;;;5069507;28;20428;-70
2024/01/30 01:00:12;;;;;;;32.13;16.92;;;;;;;;;;5070074;28;20063;-69
2024/01/30 01:02:42;;;;;;;57.30;24.98;;;;;;;;;;5069889;28;20067;-70
2024/01/30 01:05:09;;;;;;;47.35;20.50;;;;;;;;;;5052266;28;20170;-70
2024/01/30 01:07:35;;;;;;;37.92;17.40;;;;;;;;;;5069389;28;20422;-70
2024/01/30 01:10:02;;;;;;;36.28;16.02;;;;;;;;;;5070160;28;20049;-69
2024/01/30 01:12:29;;;;;;;33.45;16.42;;;;;;;;;;5069436;28;20051;-70
2024/01/30 01:14:55;;;;;;;36.40;15.82;;;;;;;;;;5069379;28;20076;-69
2024/01/30 01:17:21;;;;;;;38.40;17.38;;;;;;;;;;5069726;28;20066;-73
2024/01/30 01:19:48;;;;;;;29.55;16.85;;;;;;;;;;5069593;28;20081;-70
2024/01/30 01:22:15;;;;;;;36.22;14.98;;;;;;;;;;5069504;28;20079;-70
2024/01/30 01:24:42;;;;;;;36.67;15.85;;;;;;;;;;5069431;28;20049;-71
2024/01/30 01:27:08;;;;;;;33.75;14.52;;;;;;;;;;5069290;28;20086;-69
2024/01/30 01:29:35;;;;;;;30.25;14.15;;;;;;;;;;5068990;28;20586;-69
2024/01/30 01:32:01;;;;;;;27.10;13.15;;;;;;;;;;5051417;28;20060;-70
2024/01/30 01:34:27;;;;;;;32.33;14.65;;;;;;;;;;5051170;28;20048;-71
2024/01/30 01:36:56;;;;;;;22.08;12.15;;;;;;;;;;5051915;28;20052;-73
2024/01/30 01:39:23;;;;;;;26.60;13.05;;;;;;;;;;5068962;28;20048;-70
2024/01/30 01:41:50;;;;;;;27.98;11.63;;;;;;;;;;5069083;28;20048;-70
2024/01/30 01:44:17;;;;;;;22.48;11.60;;;;;;;;;;5069108;28;20056;-74
2024/01/30 01:46:43;;;;;;;22.70;12.20;;;;;;;;;;5069288;28;20052;-71
2024/01/30 01:49:10;;;;;;;21.90;11.93;;;;;;;;;;5068946;28;20570;-70
2024/01/30 01:51:38;;;;;;;28.30;12.88;;;;;;;;;;5051080;28;20056;-70
2024/01/30 01:54:05;;;;;;;26.27;12.65;;;;;;;;;;5069341;28;20381;-70
2024/01/30 01:56:33;;;;;;;35.75;15.30;;;;;;;;;;5050762;28;20052;-70
2024/01/30 01:59:00;;;;;;;34.65;15.48;;;;;;;;;;5068547;28;20055;-71
2024/01/30 02:01:27;;;;;;;35.50;16.08;;;;;;;;;;5069176;28;20052;-70
2024/01/30 02:03:53;;;;;;;29.83;13.68;;;;;;;;;;5051173;28;20051;-70
2024/01/30 02:06:20;;;;;;;30.25;12.25;;;;;;;;;;5051838;28;20055;-70
2024/01/30 02:08:46;;;;;;;26.70;11.48;;;;;;;;;;5069770;28;20417;-71
2024/01/30 02:11:13;;;;;;;23.70;12.00;;;;;;;;;;5069892;28;20048;-71
2024/01/30 02:13:40;;;;;;;21.02;10.13;;;;;;;;;;5068454;28;20056;-71
2024/01/30 02:16:07;;;;;;;32.53;12.30;;;;;;;;;;5068647;28;20528;-72
2024/01/30 02:18:33;;;;;;;29.63;11.32;;;;;;;;;;5068007;28;20753;-70
2024/01/30 02:21:04;;;;;;;23.73;11.35;;;;;;;;;;5068705;28;20057;-71
2024/01/30 02:23:32;;;;;;;27.75;12.57;;;;;;;;;;5068184;28;20106;-71
2024/01/30 02:25:59;;;;;;;22.60;11.25;;;;;;;;;;5068325;28;20056;-70
2024/01/30 02:28:25;;;;;;;22.02;10.40;;;;;;;;;;5067816;28;20464;-74
2024/01/30 02:30:52;;;;;;;22.90;11.05;;;;;;;;;;5068194;28;20824;-71
2024/01/30 02:33:19;;;;;;;20.02;10.15;;;;;;;;;;5067932;28;20484;-69
2024/01/30 02:35:45;;;;;;;21.38;10.43;;;;;;;;;;5068671;28;20055;-72
2024/01/30 02:38:12;;;;;;;20.55;11.75;;;;;;;;;;5069538;28;20048;-70
2024/01/30 02:40:38;;;;;;;19.05;10.48;;;;;;;;;;5072330;28;20052;-72
2024/01/30 02:43:04;;;;;;;21.35;10.13;;;;;;;;;;5069504;28;20076;-70
2024/01/30 02:45:31;;;;;;;29.67;10.80;;;;;;;;;;5067981;28;20045;-70
2024/01/30 02:47:57;;;;;;;20.70;9.27;;;;;;;;;;5067802;28;20110;-71
2024/01/30 02:50:24;;;;;;;21.55;11.27;;;;;;;;;;5067822;28;20055;-71
2024/01/30 02:52:50;;;;;;;17.77;10.20;;;;;;;;;;5067540;28;20056;-71
2024/01/30 02:55:20;;;;;;;18.45;10.07;;;;;;;;;;5049985;28;20102;-72
2024/01/30 02:57:46;;;;;;;22.98;10.90;;;;;;;;;;5067431;28;20485;-70
2024/01/30 03:00:13;;;;;;;31.23;14.10;;;;;;;;;;5067936;28;20048;-70
2024/01/30 03:02:40;;;;;;;48.80;19.42;;;;;;;;;;5066989;28;20673;-71
2024/01/30 03:05:07;;;;;;;48.13;19.63;;;;;;;;;;5071012;28;20083;-72
2024/01/30 03:07:34;;;;;;;61.95;24.63;;;;;;;;;;5070709;28;20074;-69
2024/01/30 03:10:01;;;;;;;75.40;28.45;;;;;;;;;;5067908;28;20462;-71
2024/01/30 03:12:27;;;;;;;49.00;18.70;;;;;;;;;;5067974;28;20087;-70
2024/01/30 03:14:54;;;;;;;40.55;17.65;;;;;;;;;;5067933;28;20052;-70
2024/01/30 03:17:20;;;;;;;53.75;21.83;;;;;;;;;;5067466;28;20090;-70
2024/01/30 03:19:47;;;;;;;93.25;36.15;;;;;;;;;;5067518;28;20087;-71
2024/01/30 03:22:13;;;;;;;64.13;25.83;;;;;;;;;;5067414;28;20477;-72
2024/01/30 03:24:40;;;;;;;58.47;23.77;;;;;;;;;;5067166;28;20071;-70
2024/01/30 03:27:07;;;;;;;58.40;26.48;;;;;;;;;;5049404;28;20044;-71
2024/01/30 03:29:33;;;;;;;55.53;23.35;;;;;;;;;;5068876;28;20578;-70
2024/01/30 03:31:59;;;;;;;64.40;25.92;;;;;;;;;;5070833;28;20571;-70
2024/01/30 03:34:26;;;;;;;46.80;20.92;;;;;;;;;;5066404;28;20094;-70
2024/01/30 03:36:52;;;;;;;41.05;19.08;;;;;;;;;;5066755;28;20045;-70
2024/01/30 03:39:19;;;;;;;33.47;16.33;;;;;;;;;;5067125;28;20055;-72
2024/01/30 03:41:45;;;;;;;34.50;14.48;;;;;;;;;;5067329;28;20072;-70
2024/01/30 03:44:12;;;;;;;21.65;11.40;;;;;;;;;;5067043;28;20052;-71
2024/01/30 03:46:38;;;;;;;23.52;11.25;;;;;;;;;;5066812;28;20056;-70
2024/01/30 03:49:04;;;;;;;24.02;11.23;;;;;;;;;;5048828;28;20049;-70
2024/01/30 03:51:31;;;;;;;23.75;11.98;;;;;;;;;;5067017;28;20048;-71
2024/01/30 03:53:58;;;;;;;21.52;11.15;;;;;;;;;;5049271;28;20076;-69
2024/01/30 03:56:25;;;;;;;29.23;11.55;;;;;;;;;;5050622;28;20083;-71
2024/01/30 03:58:52;;;;;;;36.08;12.60;;;;;;;;;;5070408;28;20055;-70
2024/01/30 04:01:19;;;;;;;26.10;12.15;;;;;;;;;;5067118;28;20052;-72
2024/01/30 04:03:45;;;;;;;25.95;10.98;;;;;;;;;;5049624;28;20440;-70
2024/01/30 04:06:12;;;;;;;22.83;10.80;;;;;;;;;;5067008;28;20704;-69
2024/01/30 04:08:38;;;;;;;18.27;9.32;;;;;;;;;;5066437;28;20076;-70
2024/01/30 04:11:05;;;;;;;25.25;12.52;;;;;;;;;;5066792;28;20105;-71
2024/01/30 04:13:32;;;;;;;27.63;11.70;;;;;;;;;;5045648;28;20041;-71
2024/01/30 04:16:02;;;;;;;25.95;10.82;;;;;;;;;;5050607;28;20068;-70
2024/01/30 04:18:29;;;;;;;23.02;11.93;;;;;;;;;;5050428;28;20060;-70
2024/01/30 04:20:55;;;;;;;24.77;10.40;;;;;;;;;;5050152;28;20052;-70
2024/01/30 04:23:22;;;;;;;25.67;11.82;;;;;;;;;;5050714;28;20063;-70
2024/01/30 04:25:49;;;;;;;25.88;10.95;;;;;;;;;;5033105;28;20102;-70
2024/01/30 04:28:15;;;;;;;20.25;9.73;;;;;;;;;;5050569;28;20053;-71
2024/01/30 04:30:42;;;;;;;21.58;9.80;;;;;;;;;;5050879;28;20548;-70
2024/01/30 04:33:08;;;;;;;19.65;10.02;;;;;;;;;;5050162;28;20098;-72
2024/01/30 04:35:35;;;;;;;14.90;9.23;;;;;;;;;;5032585;28;20409;-70
2024/01/30 04:38:02;;;;;;;22.65;10.73;;;;;;;;;;5032510;28;20106;-69
2024/01/30 04:40:28;;;;;;;20.40;10.60;;;;;;;;;;5051744;28;20063;-71
2024/01/30 04:42:55;;;;;;;22.38;12.05;;;;;;;;;;5070404;28;20467;-71
2024/01/30 04:45:21;;;;;;;19.50;10.05;;;;;;;;;;5070267;28;20102;-70
2024/01/30 04:47:47;;;;;;;20.48;10.10;;;;;;;;;;5069743;28;20045;-70
2024/01/30 04:50:14;;;;;;;19.38;10.57;;;;;;;;;;5070006;28;20771;-70
2024/01/30 04:52:40;;;;;;;21.77;10.40;;;;;;;;;;5069449;28;20048;-72
2024/01/30 04:55:07;;;;;;;19.23;10.70;;;;;;;;;;5070019;28;20052;-70
2024/01/30 04:57:33;;;;;;;18.60;9.93;;;;;;;;;;5069563;28;20059;-72
2024/01/30 05:00:00;;;;;;;17.33;10.57;;;;;;;;;;5069858;28;20045;-72
2024/01/30 05:02:27;;;;;;;29.48;11.07;;;;;;;;;;5069895;28;20059;-71
2024/01/30 05:04:53;;;;;;;20.27;10.68;;;;;;;;;;5069873;28;20049;-70
2024/01/30 05:07:20;;;;;;;22.48;10.43;;;;;;;;;;5069268;28;20067;-72
2024/01/30 05:09:47;;;;;;;19.35;10.00;;;;;;;;;;5070119;28;20049;-69
2024/01/30 05:12:13;;;;;;;17.85;9.55;;;;;;;;;;5070226;28;20760;-71
2024/01/30 05:14:40;;;;;;;26.73;10.60;;;;;;;;;;5051993;28;20052;-70
2024/01/30 05:17:08;;;;;;;22.77;10.80;;;;;;;;;;5069319;28;20063;-73
2024/01/30 05:19:34;;;;;;;20.27;9.85;;;;;;;;;;5069468;28;20110;-71
2024/01/30 05:22:01;;;;;;;21.77;11.48;;;;;;;;;;5069296;28;20059;-71
2024/01/30 05:24:27;;;;;;;22.95;11.63;;;;;;;;;;5069709;28;20040;-71
2024/01/30 05:26:54;;;;;;;24.52;11.13;;;;;;;;;;5068879;28;20052;-71
2024/01/30 05:29:20;;;;;;;19.48;10.57;;;;;;;;;;5069238;28;20837;-69
2024/01/30 05:31:47;;;;;;;27.75;11.43;;;;;;;;;;5069641;28;20118;-70
2024/01/30 05:34:13;;;;;;;21.42;10.35;;;;;;;;;;5069364;28;20113;-71
2024/01/30 05:36:39;;;;;;;23.58;10.40;;;;;;;;;;5069177;28;20133;-70
2024/01/30 05:39:07;;;;;;;23.17;11.93;;;;;;;;;;5069330;28;20059;-72
2024/01/30 05:41:34;;;;;;;27.13;10.93;;;;;;;;;;5069861;28;20409;-71
2024/01/30 05:44:01;;;;;;;20.70;9.98;;;;;;;;;;5070131;28;20478;-72
2024/01/30 05:46:27;;;;;;;21.33;9.75;;;;;;;;;;5070246;28;20628;-70
2024/01/30 05:48:54;;;;;;;22.75;9.65;;;;;;;;;;5051690;28;20048;-72
2024/01/30 05:51:20;;;;;;;21.73;11.05;;;;;;;;;;5051987;28;20049;-71
2024/01/30 05:53:47;;;;;;;20.27;9.88;;;;;;;;;;5070022;28;20082;-72
2024/01/30 05:56:13;;;;;;;25.90;10.20;;;;;;;;;;5069795;28;20067;-70
2024/01/30 05:58:40;;;;;;;23.98;10.65;;;;;;;;;;5069611;28;20102;-70
2024/01/30 06:01:09;;;;;;;20.15;9.45;;;;;;;;;;5070349;28;20696;-71
2024/01/30 06:03:36;;;;;;;20.63;10.40;;;;;;;;;;5069854;28;20049;-70
2024/01/30 06:06:02;;;;;;;22.98;10.98;;;;;;;;;;5052512;28;20086;-70
2024/01/30 06:08:29;;;;;;;22.40;10.13;;;;;;;;;;5070007;28;20118;-72
2024/01/30 06:10:55;;;;;;;16.50;9.05;;;;;;;;;;5052535;28;20135;-71
2024/01/30 06:13:21;;;;;;;25.08;10.30;;;;;;;;;;5069315;28;20586;-71
2024/01/30 06:15:48;;;;;;;20.75;10.20;;;;;;;;;;5051681;28;20110;-72
2024/01/30 06:18:14;;;;;;;25.15;11.52;;;;;;;;;;5068326;28;20128;-70
2024/01/30 06:20:41;;;;;;;31.60;10.98;;;;;;;;;;5069073;28;20041;-71
2024/01/30 06:23:07;;;;;;;20.05;10.02;;;;;;;;;;5068297;28;20052;-71
2024/01/30 06:25:34;;;;;;;18.55;9.80;;;;;;;;;;5068331;28;20128;-71
2024/01/30 06:28:00;;;;;;;18.35;9.57;;;;;;;;;;5068082;28;20080;-70
2024/01/30 06:30:27;;;;;;;25.85;9.85;;;;;;;;;;5068557;28;20052;-72
2024/01/30 06:32:53;;;;;;;23.80;10.77;;;;;;;;;;5067898;28;20400;-72
2024/01/30 06:35:21;;;;;;;21.98;11.23;;;;;;;;;;5068002;28;20505;-73
2024/01/30 06:37:47;;;;;;;19.65;10.18;;;;;;;;;;5066778;28;20048;-69
2024/01/30 06:40:14;;;;;;;21.42;9.77;;;;;;;;;;5068319;28;20052;-69
2024/01/30 06:42:40;;;;;;;22.73;10.52;;;;;;;;;;5066415;28;20412;-70
2024/01/30 06:45:08;;;;;;;23.58;11.52;;;;;;;;;;5067427;28;20053;-68
2024/01/30 06:47:34;;;;;;;35.05;15.95;;;;;;;;;;5067888;28;20135;-71
2024/01/30 06:50:02;;;;;;;25.77;12.15;;;;;;;;;;5067939;28;20075;-70
2024/01/30 06:52:28;;;;;;;19.05;10.07;;;;;;;;;;5066124;28;20201;-68
2024/01/30 06:54:55;;;;;;;21.70;10.27;;;;;;;;;;5060977;28;20076;-69
2024/01/30 06:57:21;;;;;;;23.00;10.82;;;;;;;;;;5047191;28;20130;-71
2024/01/30 06:59:48;;;;;;;23.25;11.30;;;;;;;;;;5048016;28;20191;-70
2024/01/30 07:02:14;;;;;;;42.97;20.52;;;;;;;;;;5046170;28;20056;-70
2024/01/30 07:04:41;;;;;;;41.67;21.50;;;;;;;;;;5046644;28;20375;-69
2024/01/30 07:07:13;;;;;;;;;;;;;;;;;;5047579;28;20056;-72
2024/01/30 07:09:40;;;;;;;21.40;11.15;;;;;;;;;;5047021;28;20698;-70
2024/01/30 07:12:06;;;;;;;22.88;10.70;;;;;;;;;;5047418;28;20049;-72
2024/01/30 07:14:33;;;;;;;18.00;9.80;;;;;;;;;;5062293;28;20442;-70
2024/01/30 07:16:59;;;;;;;20.27;10.30;;;;;;;;;;5049579;28;20499;-70
2024/01/30 07:19:26;;;;;;;20.52;11.00;;;;;;;;;;5066648;28;20049;-70
2024/01/30 07:21:52;;;;;;;20.92;9.90;;;;;;;;;;5067825;28;20045;-73
2024/01/30 07:24:19;;;;;;;22.58;9.88;;;;;;;;;;5067673;28;20579;-71
2024/01/30 07:26:45;;;;;;;21.10;10.52;;;;;;;;;;5067478;28;20141;-72
2024/01/30 07:29:11;;;;;;;26.92;11.52;;;;;;;;;;5066984;28;20052;-70
2024/01/30 07:31:38;;;;;;;21.88;10.45;;;;;;;;;;5067072;28;20053;-71
2024/01/30 07:34:05;;;;;;;22.95;10.32;;;;;;;;;;5067222;28;20481;-72
2024/01/30 07:36:31;;;;;;;18.52;9.82;;;;;;;;;;5067297;28;20131;-70
2024/01/30 07:38:58;;;;;;;20.08;9.35;;;;;;;;;;5067134;28;20044;-70
2024/01/30 07:41:25;;;;;;;20.33;9.15;;;;;;;;;;5067123;28;20068;-70
2024/01/30 07:43:52;;;;;;;19.98;10.18;;;;;;;;;;5067032;28;20045;-70
2024/01/30 07:46:18;;;;;;;15.55;9.18;;;;;;;;;;5066857;28;20044;-71
2024/01/30 07:48:45;;;;;;;26.38;11.68;;;;;;;;;;5059474;28;20052;-70
2024/01/30 07:51:11;;;;;;;20.25;10.25;;;;;;;;;;5053114;28;20052;-72
2024/01/30 07:53:37;;;;;;;23.85;11.10;;;;;;;;;;5053534;28;20052;-72
2024/01/30 07:56:05;;;;;;;20.05;10.93;;;;;;;;;;5055762;28;20718;-70
2024/01/30 07:58:31;;;;;;;26.10;11.75;;;;;;;;;;5073338;28;20052;-72
2024/01/30 08:01:00;;;;;;;17.13;8.85;;;;;;;;;;5073324;28;20086;-70
2024/01/30 08:03:26;;;;;;;16.90;9.23;;;;;;;;;;5056016;28;20436;-71
2024/01/30 08:05:53;;;;;;;29.58;10.98;;;;;;;;;;5055319;28;20053;-71
2024/01/30 08:08:19;;;;;;;22.50;10.00;;;;;;;;;;5055401;28;20074;-73
2024/01/30 08:10:46;;;;;;;18.25;10.48;;;;;;;;;;5055641;28;20143;-70
2024/01/30 08:13:12;;;;;;;26.05;11.52;;;;;;;;;;5073131;28;20052;-72
2024/01/30 08:15:39;;;;;;;26.05;10.43;;;;;;;;;;5073477;28;20139;-71
2024/01/30 08:18:06;;;;;;;21.30;10.80;;;;;;;;;;5072773;28;20097;-71
2024/01/30 08:20:33;;;;;;;24.55;10.25;;;;;;;;;;5055214;28;20055;-70
2024/01/30 08:23:00;;;;;;;18.48;10.00;;;;;;;;;;5073155;28;20051;-74
2024/01/30 08:25:27;;;;;;;21.15;10.68;;;;;;;;;;5073321;28;20048;-73
2024/01/30 08:27:53;;;;;;;20.13;10.45;;;;;;;;;;5073223;28;20135;-71
2024/01/30 08:30:20;;;;;;;20.42;8.88;;;;;;;;;;5073272;28;20141;-73
2024/01/30 08:32:47;;;;;;;22.98;9.45;;;;;;;;;;5073370;28;20493;-72
2024/01/30 08:35:15;;;;;;;17.98;9.25;;;;;;;;;;5072936;28;20157;-73
2024/01/30 08:37:42;;;;;;;28.42;10.75;;;;;;;;;;5055181;28;20058;-73
2024/01/30 08:40:08;;;;;;;17.35;9.25;;;;;;;;;;5072739;28;20112;-75
2024/01/30 08:42:35;;;;;;;19.40;9.27;;;;;;;;;;5072982;28;20110;-73
2024/01/30 08:45:02;;;;;;;20.55;9.80;;;;;;;;;;5073147;28;20554;-72
2024/01/30 08:47:28;;;;;;;16.52;9.55;;;;;;;;;;5072912;28;20048;-72
2024/01/30 08:49:55;;;;;;;21.20;9.90;;;;;;;;;;5072855;28;20537;-72
2024/01/30 08:52:21;;;;;;;24.38;9.85;;;;;;;;;;5073050;28;20048;-72
2024/01/30 08:54:48;;;;;;;21.23;9.75;;;;;;;;;;5073050;28;20076;-70
2024/01/30 08:57:14;;;;;;;19.48;9.60;;;;;;;;;;5072873;28;20129;-71
2024/01/30 08:59:41;;;;;;;25.08;10.43;;;;;;;;;;5073063;28;20388;-71
2024/01/30 09:02:09;;;;;;;15.75;8.88;;;;;;;;;;5069140;28;20076;-72
2024/01/30 09:04:38;;;;;;;21.15;9.35;;;;;;;;;;5052492;28;20056;-71
2024/01/30 09:07:08;;;;;;;15.95;8.73;;;;;;;;;;5069905;28;20648;-74
2024/01/30 09:09:35;;;;;;;15.88;8.88;;;;;;;;;;5069985;28;20055;-71
2024/01/30 09:12:06;;;;;;;13.63;7.95;;;;;;;;;;5070185;28;20615;-71
2024/01/30 09:14:33;;;;;;;16.40;8.07;;;;;;;;;;5048519;28;20079;-72
2024/01/30 09:16:59;;;;;;;15.43;8.70;;;;;;;;;;5049591;28;20106;-73
2024/01/30 09:19:26;;;;;;;17.83;8.93;;;;;;;;;;5031633;28;20088;-71
2024/01/30 09:21:53;;;;;;;19.25;7.85;;;;;;;;;;5049275;28;20131;-70
2024/01/30 09:24:19;;;;;;;15.68;9.10;;;;;;;;;;5049556;28;20056;-71
2024/01/30 09:26:46;;;;;;;17.40;9.25;;;;;;;;;;5049278;28;20099;-70
2024/01/30 09:29:12;;;;;;;14.05;7.90;;;;;;;;;;5050173;28;20075;-71
2024/01/30 09:31:38;;;;;;;14.43;8.13;;;;;;;;;;5050682;28;20529;-71
2024/01/30 09:34:05;;;;;;;16.70;8.25;;;;;;;;;;5049334;28;20050;-74
2024/01/30 09:36:31;;;;;;;17.58;8.23;;;;;;;;;;5049233;28;20057;-73
2024/01/30 09:38:58;;;;;;;17.48;7.95;;;;;;;;;;5048950;28;20079;-73
2024/01/30 09:41:25;;;;;;;16.67;7.60;;;;;;;;;;5040705;28;20049;-73
2024/01/30 09:43:53;;;;;;;17.63;8.63;;;;;;;;;;5051522;28;20083;-75
2024/01/30 09:46:21;;;;;;;15.88;8.07;;;;;;;;;;5069225;28;20040;-75
2024/01/30 09:48:48;;;;;;;16.30;8.13;;;;;;;;;;5068966;28;20046;-72
2024/01/30 09:51:16;;;;;;;25.35;8.82;;;;;;;;;;5069184;28;20511;-72
2024/01/30 09:53:43;;;;;;;16.23;7.88;;;;;;;;;;5069224;28;20048;-71
2024/01/30 09:56:11;;;;;;;13.80;8.23;;;;;;;;;;5069910;28;20063;-74
2024/01/30 09:58:39;;;;;;;16.65;7.35;;;;;;;;;;5070280;28;20056;-72
2024/01/30 10:01:06;;;;;;;16.95;8.40;;;;;;;;;;5071843;28;20752;-74
2024/01/30 10:03:32;;;;;;;23.40;9.63;;;;;;;;;;5069795;28;20063;-71
2024/01/30 10:06:00;;;;;;;13.90;7.80;;;;;;;;;;5069296;28;20053;-72
2024/01/30 10:08:27;;;;;;;17.63;6.93;;;;;;;;;;5068914;28;20439;-72
2024/01/30 10:10:53;;;;;;;13.00;6.68;;;;;;;;;;5068960;28;20044;-71
2024/01/30 10:13:20;;;;;;;15.88;8.38;;;;;;;;;;5050682;28;20051;-72
2024/01/30 10:15:47;;;;;;;15.15;7.00;;;;;;;;;;5068755;28;20052;-73
2024/01/30 10:18:13;;;;;;;14.43;8.10;;;;;;;;;;5068120;28;20055;-71
2024/01/30 10:20:40;;;;;;;15.05;7.80;;;;;;;;;;5068464;28;20127;-73
2024/01/30 10:23:07;;;;;;;15.90;7.90;;;;;;;;;;5068703;28;20183;-71
2024/01/30 10:25:35;;;;;;;22.80;8.00;;;;;;;;;;5050581;28;20107;-71
2024/01/30 10:28:02;;;;;;;12.35;7.55;;;;;;;;;;5068100;28;20486;-72
2024/01/30 10:30:29;;;;;;;14.02;7.78;;;;;;;;;;5068285;28;20098;-73
2024/01/30 10:32:55;;;;;;;16.27;7.25;;;;;;;;;;5068083;28;20051;-71
2024/01/30 10:35:22;;;;;;;15.77;7.63;;;;;;;;;;5027107;28;20136;-72
2024/01/30 10:37:49;;;;;;;18.48;7.72;;;;;;;;;;5027872;28;20069;-70
2024/01/30 10:40:15;;;;;;;13.85;7.03;;;;;;;;;;5028379;28;20056;-72
2024/01/30 10:42:43;;;;;;;15.77;8.05;;;;;;;;;;5028240;28;20062;-71
2024/01/30 10:45:13;;;;;;;13.18;7.35;;;;;;;;;;5027568;28;20406;-74
2024/01/30 10:47:40;;;;;;;12.75;7.10;;;;;;;;;;5027750;28;20445;-74
2024/01/30 10:50:10;;;;;;;11.80;7.38;;;;;;;;;;5028200;28;20045;-73
2024/01/30 10:52:37;;;;;;;18.70;7.95;;;;;;;;;;5028102;28;20107;-71
2024/01/30 10:55:07;;;;;;;16.23;7.78;;;;;;;;;;5027526;28;20387;-70
2024/01/30 10:57:35;;;;;;;14.88;8.15;;;;;;;;;;5027781;28;20088;-72
2024/01/30 11:00:10;;;;;;;13.98;7.20;;;;;;;;;;5027381;28;20045;-73
2024/01/30 11:02:41;;;;;;;16.20;8.93;;;;;;;;;;5027418;28;20084;-73
2024/01/30 11:05:08;;;;;;;16.27;8.27;;;;;;;;;;5027562;28;20084;-73
2024/01/30 11:07:34;;;;;;;13.65;7.85;;;;;;;;;;5027451;28;20049;-71
2024/01/30 11:10:03;;;;;;;18.45;8.00;;;;;;;;;;5026929;28;20510;-73
2024/01/30 11:12:32;;;;;;;17.02;7.63;;;;;;;;;;5026075;28;20038;-75
2024/01/30 11:15:06;;;;;;;11.75;7.68;;;;;;;;;;5026407;28;20128;-72
2024/01/30 11:17:42;;;;;;;17.95;8.45;;;;;;;;;;5016880;28;20081;-76
2024/01/30 11:20:12;;;;;;;14.32;7.65;;;;;;;;;;5025311;28;20055;-75
2024/01/30 11:22:40;;;;;;;14.73;7.82;;;;;;;;;;5025295;28;20061;-75
2024/01/30 11:25:10;;;;;;;15.25;7.95;;;;;;;;;;5018147;28;20065;-74
2024/01/30 11:27:37;;;;;;;11.88;7.55;;;;;;;;;;5019896;28;20053;-75
2024/01/30 11:30:04;;;;;;;17.92;8.30;;;;;;;;;;5022813;28;20085;-77
2024/01/30 11:32:31;;;;;;;11.82;7.68;;;;;;;;;;5027097;28;20107;-75
2024/01/30 11:34:57;;;;;;;14.10;7.50;;;;;;;;;;5060939;28;20568;-76
2024/01/30 11:37:27;;;;;;;17.10;8.15;;;;;;;;;;5066843;28;20080;-74
2024/01/30 11:39:54;;;;;;;14.68;6.70;;;;;;;;;;5068007;28;20132;-75
2024/01/30 11:42:24;;;;;;;15.90;7.55;;;;;;;;;;5068336;28;20115;-74
2024/01/30 11:44:51;;;;;;;15.35;7.63;;;;;;;;;;5051138;28;20053;-77
2024/01/30 11:47:17;;;;;;;18.27;8.18;;;;;;;;;;5067127;28;20059;-75
2024/01/30 11:49:44;;;;;;;12.35;7.10;;;;;;;;;;5067142;28;20056;-74
2024/01/30 11:52:11;;;;;;;15.63;7.70;;;;;;;;;;5065548;28;20047;-74
2024/01/30 11:54:39;;;;;;;19.05;8.43;;;;;;;;;;5066871;28;20055;-73
2024/01/30 11:57:06;;;;;;;17.60;8.73;;;;;;;;;;5066811;28;20106;-75
2024/01/30 11:59:32;;;;;;;14.32;7.47;;;;;;;;;;5066690;28;20044;-73
2024/01/30 12:01:58;;;;;;;18.63;7.68;;;;;;;;;;5048836;28;20072;-73
2024/01/30 12:04:28;;;;;;;13.73;7.30;;;;;;;;;;5066763;28;20481;-73
2024/01/30 12:06:55;;;;;;;16.33;7.15;;;;;;;;;;5066812;28;20139;-73
2024/01/30 12:09:22;;;;;;;13.32;6.32;;;;;;;;;;5066702;28;20172;-75
2024/01/30 12:11:51;;;;;;;11.15;6.63;;;;;;;;;;5065763;28;20102;-73
2024/01/30 12:14:20;;;;;;;13.23;7.50;;;;;;;;;;5066531;28;20659;-74
2024/01/30 12:16:52;;;;;;;16.67;7.93;;;;;;;;;;5066830;28;20549;-73
2024/01/30 12:19:25;;;;;;;14.00;7.80;;;;;;;;;;5047712;28;20048;-74
2024/01/30 12:21:58;;;;;;;16.23;8.30;;;;;;;;;;5066428;28;20072;-73
2024/01/30 12:24:26;;;;;;;18.98;7.80;;;;;;;;;;5066281;28;20063;-72
2024/01/30 12:26:56;;;;;;;22.20;7.95;;;;;;;;;;5066387;28;20049;-75
2024/01/30 12:29:23;;;;;;;19.55;8.05;;;;;;;;;;5066682;28;20056;-68
2024/01/30 12:31:52;;;;;;;13.65;7.07;;;;;;;;;;5062387;28;20151;-71
2024/01/30 12:34:20;;;;;;;14.73;7.28;;;;;;;;;;5046104;28;20486;-71
2024/01/30 12:36:48;;;;;;;14.55;7.95;;;;;;;;;;5031485;28;20048;-73
2024/01/30 12:39:14;;;;;;;14.15;7.90;;;;;;;;;;5056461;28;20135;-74
2024/01/30 12:41:41;;;;;;;15.35;7.32;;;;;;;;;;5058878;28;20589;-72
2024/01/30 12:44:08;;;;;;;14.25;6.03;;;;;;;;;;5067665;28;20059;-71
2024/01/30 12:46:35;;;;;;;10.35;7.63;;;;;;;;;;5065169;28;20609;-74
2024/01/30 12:49:01;;;;;;;11.55;6.63;;;;;;;;;;5068749;28;20658;-73
2024/01/30 12:51:28;;;;;;;14.40;7.03;;;;;;;;;;5050408;28;20139;-72
2024/01/30 12:53:54;;;;;;;11.18;6.40;;;;;;;;;;5068727;28;20045;-73
2024/01/30 12:56:20;;;;;;;17.10;7.00;;;;;;;;;;5068584;28;20060;-73
2024/01/30 12:58:47;;;;;;;16.25;7.43;;;;;;;;;;5051997;28;20111;-74
2024/01/30 13:01:18;;;;;;;14.27;6.53;;;;;;;;;;5061538;28;20055;-69
2024/01/30 13:03:44;;;;;;;17.95;6.75;;;;;;;;;;5068885;28;20049;-70
2024/01/30 13:06:11;;;;;;;17.60;8.40;;;;;;;;;;5068745;28;20514;-69
2024/01/30 13:08:37;;;;;;;14.57;6.78;;;;;;;;;;5068236;28;20052;-69
2024/01/30 13:11:04;;;;;;;13.50;7.03;;;;;;;;;;5068587;28;20045;-68
2024/01/30 13:13:30;;;;;;;19.27;7.45;;;;;;;;;;5068748;28;20098;-70
2024/01/30 13:15:57;;;;;;;13.50;7.40;;;;;;;;;;5068351;28;20052;-70
2024/01/30 13:18:24;;;;;;;12.25;7.07;;;;;;;;;;5065881;28;20048;-67
2024/01/30 13:20:50;;;;;;;15.60;6.32;;;;;;;;;;5067966;28;20059;-70
2024/01/30 13:23:17;;;;;;;13.88;6.55;;;;;;;;;;5050815;28;20048;-69
2024/01/30 13:25:43;;;;;;;12.50;6.90;;;;;;;;;;5064926;28;20056;-69
2024/01/30 13:28:09;;;;;;;14.20;6.85;;;;;;;;;;5049972;28;20455;-68
2024/01/30 13:30:36;;;;;;;14.10;6.72;;;;;;;;;;5067777;28;20040;-70
2024/01/30 13:33:03;;;;;;;13.95;6.95;;;;;;;;;;5067105;28;20047;-73
2024/01/30 13:35:30;;;;;;;14.85;7.97;;;;;;;;;;5066317;28;20147;-72
2024/01/30 13:37:57;;;;;;;12.18;7.15;;;;;;;;;;5066132;28;20072;-74
2024/01/30 13:40:24;;;;;;;12.85;7.15;;;;;;;;;;5067771;28;20049;-73
2024/01/30 13:42:51;;;;;;;16.42;7.20;;;;;;;;;;5068114;28;20635;-78
2024/01/30 13:45:17;;;;;;;16.90;8.23;;;;;;;;;;5053814;28;20048;-73
2024/01/30 13:47:46;;;;;;;14.60;7.32;;;;;;;;;;5053812;28;20629;-73
2024/01/30 13:50:15;;;;;;;13.25;7.53;;;;;;;;;;5067690;28;20151;-74
2024/01/30 13:52:41;;;;;;;13.95;6.53;;;;;;;;;;5050409;28;20427;-71
2024/01/30 13:55:11;;;;;;;13.15;7.43;;;;;;;;;;5052433;28;20057;-69
2024/01/30 13:57:38;;;;;;;10.82;6.47;;;;;;;;;;5068896;28;20106;-73
2024/01/30 14:00:06;;;;;;;10.13;6.35;;;;;;;;;;5068338;28;20114;-69
2024/01/30 14:02:32;;;;;;;12.25;7.35;;;;;;;;;;5068217;28;20040;-69
2024/01/30 14:04:59;;;;;;;12.13;6.57;;;;;;;;;;5067954;28;20056;-70
2024/01/30 14:07:26;;;;;;;18.83;8.38;;;;;;;;;;5067055;28;20067;-73
2024/01/30 14:09:52;;;;;;;16.10;7.30;;;;;;;;;;5067185;28;20059;-65
2024/01/30 14:12:19;;;;;;;14.25;7.25;;;;;;;;;;5067388;28;20120;-68
2024/01/30 14:14:45;;;;;;;12.30;7.00;;;;;;;;;;5067029;28;20048;-66
2024/01/30 14:17:12;;;;;;;12.15;6.85;;;;;;;;;;5067154;28;20490;-67
2024/01/30 14:19:38;;;;;;;15.90;7.20;;;;;;;;;;5067356;28;20685;-71
2024/01/30 14:22:06;;;;;;;13.95;6.55;;;;;;;;;;5067117;28;20049;-72